Terminal Aerodrome Forecast
Issued by NWS Austin/San Antonio, TX

Home | Current Version | Previous Version | Text Only | Print | Product List | Glossary On
Versions: 1 2 3 4 5 6 7 8 9 10 11 12 13 14 15 16 17 18 19 20 21 22 23 24 25 26 27
980
FTUS44 KEWX 240538
TAFSAT
TAF
KSAT 240538Z 2406/2512 12007KT P6SM BKN012
     FM241000 13004KT P6SM OVC007
     FM241400 16006KT P6SM BKN015
     FM241600 13007KT P6SM SCT040=

USA.gov is the U.S. government's official web portal to all federal, state and local government web resources and services.